Time;durP1;ratioP1;P1;durP2;ratioP2;P2;SDS_P1;SDS_P2;PMS_P1;PMS_P2;Temp;Humidity;BMP_temperature;BMP_pressure;BME280_temperature;BME280_humidity;BME280_pressure;Samples;Min_cycle;Max_cycle;Signal;HPM_P1;HPM_P2
2022/04/03 00:01:25;;;;;;;4.82;1.88;;;-1.80;99.90;;;;;;4864140;29;20076;-76
2022/04/03 00:03:51;;;;;;;6.32;1.75;;;-1.80;99.90;;;;;;4881066;29;20053;-76
2022/04/03 00:06:17;;;;;;;5.50;1.90;;;-1.80;99.90;;;;;;4864032;29;20498;-75
2022/04/03 00:08:43;;;;;;;4.75;1.73;;;-1.90;99.90;;;;;;4880326;29;20524;-76
2022/04/03 00:11:09;;;;;;;5.05;1.83;;;-1.90;99.90;;;;;;4863770;29;20089;-76
2022/04/03 00:13:36;;;;;;;6.50;1.70;;;-1.90;99.90;;;;;;4880797;29;20077;-76
2022/04/03 00:16:03;;;;;;;4.30;1.70;;;-2.00;99.90;;;;;;4887535;29;20391;-75
2022/04/03 00:18:29;;;;;;;5.28;1.88;;;-2.00;99.90;;;;;;4898502;29;20049;-76
2022/04/03 00:20:55;;;;;;;6.10;2.20;;;-2.00;99.90;;;;;;4898788;29;20060;-76
2022/04/03 00:23:23;;;;;;;9.32;2.67;;;-2.00;99.90;;;;;;4882488;29;20172;-76
2022/04/03 00:25:50;;;;;;;5.53;2.17;;;-2.00;99.90;;;;;;4898673;29;20068;-76
2022/04/03 00:28:15;;;;;;;5.35;1.90;;;-2.00;99.90;;;;;;4899171;29;20056;-76
2022/04/03 00:30:42;;;;;;;6.55;2.10;;;-2.10;99.90;;;;;;4866635;29;20053;-80
2022/04/03 00:33:08;;;;;;;7.43;2.08;;;-2.10;99.90;;;;;;4899220;29;20513;-78
2022/04/03 00:35:35;;;;;;;4.78;2.03;;;-2.10;99.90;;;;;;4899394;29;20485;-74
2022/04/03 00:38:00;;;;;;;5.90;1.92;;;-2.20;99.90;;;;;;4866633;29;20103;-76
2022/04/03 00:40:26;;;;;;;6.00;2.30;;;-2.20;99.90;;;;;;4882009;29;20513;-75
2022/04/03 00:42:52;;;;;;;5.90;2.13;;;-2.20;99.90;;;;;;4881784;29;20060;-74
2022/04/03 00:45:19;;;;;;;7.15;2.30;;;-2.30;99.90;;;;;;4898909;29;20091;-74
2022/04/03 00:47:48;;;;;;;5.75;2.13;;;-2.30;99.90;;;;;;4899117;29;20046;-73
2022/04/03 00:50:27;;;;;;;5.45;2.45;;;-2.40;99.90;;;;;;4899200;29;20045;-74
2022/04/03 00:52:55;;;;;;;6.18;2.08;;;-2.50;99.90;;;;;;4898588;29;20071;-73
2022/04/03 00:55:21;;;;;;;6.75;2.35;;;-2.90;99.90;;;;;;4898870;29;20044;-76
2022/04/03 00:57:47;;;;;;;6.95;2.35;;;-0.80;99.90;;;;;;4897968;29;20397;-75
2022/04/03 01:00:13;;;;;;;8.15;2.78;;;-2.60;99.90;;;;;;4898708;29;20100;-75
2022/04/03 01:02:40;;;;;;;8.48;2.78;;;-2.40;99.90;;;;;;4881762;29;20580;-74
2022/04/03 01:05:07;;;;;;;6.50;2.47;;;-2.40;99.90;;;;;;4898311;29;20481;-76
2022/04/03 01:07:36;;;;;;;5.63;2.28;;;-2.30;99.90;;;;;;4866481;29;20132;-74
2022/04/03 01:10:03;;;;;;;7.40;2.63;;;-1.30;99.90;;;;;;4881879;29;20053;-74
2022/04/03 01:12:28;;;;;;;7.50;2.55;;;-2.30;99.90;;;;;;4898213;29;20132;-74
2022/04/03 01:14:54;;;;;;;7.07;2.65;;;-2.50;99.90;;;;;;4898200;29;20123;-75
2022/04/03 01:17:20;;;;;;;8.68;2.80;;;-2.30;99.90;;;;;;4897718;29;20398;-76
2022/04/03 01:19:45;;;;;;;9.05;2.78;;;-2.30;99.90;;;;;;4898276;29;20060;-76
2022/04/03 01:22:12;;;;;;;7.30;2.53;;;-2.30;99.90;;;;;;4898174;29;20084;-76
2022/04/03 01:24:42;;;;;;;6.53;2.42;;;-2.20;99.90;;;;;;4898354;29;20048;-76
2022/04/03 01:27:08;;;;;;;8.63;2.40;;;-2.20;99.90;;;;;;4898123;29;20044;-75
2022/04/03 01:29:34;;;;;;;9.50;3.08;;;-2.20;99.90;;;;;;4880312;29;20119;-76
2022/04/03 01:31:59;;;;;;;9.82;2.30;;;-2.10;99.90;;;;;;4880730;29;20136;-76
2022/04/03 01:34:25;;;;;;;7.72;2.50;;;-2.20;99.90;;;;;;4897962;29;20048;-76
2022/04/03 01:36:51;;;;;;;5.63;2.03;;;-2.10;99.90;;;;;;4898145;29;20055;-76
2022/04/03 01:39:16;;;;;;;6.57;2.67;;;-2.10;99.90;;;;;;4898236;29;20076;-75
2022/04/03 01:41:43;;;;;;;6.03;2.10;;;-2.20;99.90;;;;;;4880839;29;20044;-75
2022/04/03 01:44:11;;;;;;;6.13;2.28;;;-2.20;99.90;;;;;;4897764;29;20052;-76
2022/04/03 01:46:37;;;;;;;9.15;2.72;;;-2.20;99.90;;;;;;4880580;29;20412;-76
2022/04/03 01:49:04;;;;;;;5.55;2.55;;;-2.20;99.90;;;;;;4897847;29;20442;-76
2022/04/03 01:51:31;;;;;;;6.47;2.35;;;-2.20;99.90;;;;;;4897668;29;20112;-76
2022/04/03 01:53:57;;;;;;;5.05;2.05;;;-2.20;99.90;;;;;;4880474;29;20048;-75
2022/04/03 01:56:22;;;;;;;6.10;2.05;;;-2.10;99.90;;;;;;4898129;29;20124;-76
2022/04/03 01:58:49;;;;;;;7.25;2.17;;;-2.10;99.90;;;;;;4897601;29;20481;-76
2022/04/03 02:01:15;;;;;;;5.70;2.45;;;-1.10;99.90;;;;;;4897361;29;20095;-77
2022/04/03 02:03:40;;;;;;;8.05;2.20;;;-2.10;99.90;;;;;;4880791;29;20080;-75
2022/04/03 02:06:06;;;;;;;5.75;2.33;;;-2.10;99.90;;;;;;4880607;29;20044;-75
2022/04/03 02:08:31;;;;;;;8.30;2.30;;;-2.00;99.90;;;;;;4880666;29;20480;-75
2022/04/03 02:10:58;;;;;;;7.20;2.15;;;-2.10;99.90;;;;;;4880959;29;20048;-76
2022/04/03 02:13:24;;;;;;;6.88;2.05;;;-1.70;99.90;;;;;;4880749;29;20045;-76
2022/04/03 02:15:50;;;;;;;6.53;2.20;;;-2.10;99.90;;;;;;4897475;29;20116;-76
2022/04/03 02:18:15;;;;;;;6.72;2.17;;;-2.10;99.90;;;;;;4879694;29;20139;-76
2022/04/03 02:20:41;;;;;;;6.05;2.28;;;-2.20;99.90;;;;;;4880768;29;20048;-76
2022/04/03 02:23:07;;;;;;;5.53;2.25;;;-2.20;99.90;;;;;;4880886;29;20116;-76
2022/04/03 02:25:32;;;;;;;6.32;2.08;;;-2.30;99.90;;;;;;4897390;29;20052;-76
2022/04/03 02:27:59;;;;;;;5.88;2.15;;;-2.30;99.90;;;;;;4880548;29;20064;-76
2022/04/03 02:30:25;;;;;;;5.70;2.10;;;-2.30;99.90;;;;;;4880359;29;20529;-76
2022/04/03 02:32:51;;;;;;;6.65;2.17;;;-2.30;99.90;;;;;;4881010;29;20501;-75
2022/04/03 02:35:17;;;;;;;5.85;2.13;;;-2.30;99.90;;;;;;4897333;29;20052;-76
2022/04/03 02:37:43;;;;;;;7.60;1.95;;;-2.20;99.90;;;;;;4897392;29;20056;-76
2022/04/03 02:40:12;;;;;;;5.05;1.88;;;-2.20;99.90;;;;;;4897506;29;20413;-76
2022/04/03 02:42:38;;;;;;;6.90;2.38;;;-1.80;99.90;;;;;;4882000;29;20477;-75
2022/04/03 02:45:05;;;;;;;8.20;2.30;;;-2.10;99.90;;;;;;4884090;29;20057;-76
2022/04/03 02:47:32;;;;;;;5.82;2.00;;;-2.00;99.90;;;;;;4901179;29;20052;-76
2022/04/03 02:49:58;;;;;;;5.25;2.22;;;-1.90;99.90;;;;;;4883439;29;20107;-76
2022/04/03 02:52:23;;;;;;;5.85;2.30;;;-1.80;99.90;;;;;;4884145;29;20512;-76
2022/04/03 02:54:49;;;;;;;5.88;2.15;;;-1.70;99.90;;;;;;4900872;29;20071;-77
2022/04/03 02:57:16;;;;;;;3.78;1.65;;;-1.60;99.90;;;;;;4900890;29;20055;-77
2022/04/03 02:59:43;;;;;;;5.95;2.00;;;-1.60;99.90;;;;;;4900951;29;20096;-76
2022/04/03 03:02:10;;;;;;;3.72;1.58;;;-1.50;99.90;;;;;;4900574;29;20056;-77
2022/04/03 03:04:36;;;;;;;7.55;1.90;;;-1.40;99.90;;;;;;4900576;29;20073;-77
2022/04/03 03:07:03;;;;;;;5.78;1.75;;;-1.40;99.90;;;;;;4883222;29;20048;-76
2022/04/03 03:09:28;;;;;;;6.22;1.90;;;-1.30;99.90;;;;;;4900340;29;20044;-75
2022/04/03 03:11:54;;;;;;;5.97;2.22;;;-1.20;99.90;;;;;;4900794;29;20077;-77
2022/04/03 03:14:20;;;;;;;5.13;1.90;;;-1.10;99.90;;;;;;4883639;29;20055;-76
2022/04/03 03:16:45;;;;;;;5.13;2.00;;;-1.10;99.90;;;;;;4883227;29;20412;-76
2022/04/03 03:19:11;;;;;;;9.50;2.10;;;-1.00;99.90;;;;;;4900523;29;20096;-77
2022/04/03 03:21:37;;;;;;;5.40;1.70;;;-1.00;99.90;;;;;;4899769;29;20075;-75
2022/04/03 03:24:03;;;;;;;4.78;1.83;;;-0.90;99.90;;;;;;4900419;29;20044;-77
2022/04/03 03:26:28;;;;;;;4.45;1.75;;;-0.80;99.90;;;;;;4900518;29;20409;-77
2022/04/03 03:28:54;;;;;;;6.15;2.10;;;-0.80;99.90;;;;;;4883557;29;20052;-77
2022/04/03 03:31:20;;;;;;;6.85;2.03;;;-0.80;99.90;;;;;;4883149;29;20048;-76
2022/04/03 03:33:47;;;;;;;6.53;2.20;;;-0.80;99.90;;;;;;4900458;29;20048;-77
2022/04/03 03:36:13;;;;;;;5.60;2.20;;;-0.70;99.90;;;;;;4900340;29;20046;-77
2022/04/03 03:38:40;;;;;;;7.13;2.20;;;-0.70;99.90;;;;;;4899762;29;20088;-77
2022/04/03 03:41:06;;;;;;;6.30;1.65;;;-0.70;99.90;;;;;;4887411;29;20139;-75
2022/04/03 03:43:32;;;;;;;7.40;2.05;;;-0.70;99.90;;;;;;4891443;29;20513;-76
2022/04/03 03:45:59;;;;;;;5.47;2.10;;;-0.70;99.90;;;;;;4888256;29;20096;-77
2022/04/03 03:48:25;;;;;;;5.35;2.13;;;-0.70;99.90;;;;;;4889814;29;20049;-76
2022/04/03 03:50:51;;;;;;;3.95;1.42;;;-0.60;99.90;;;;;;4901814;29;20136;-77
2022/04/03 03:53:18;;;;;;;6.20;2.15;;;-0.60;99.90;;;;;;4899747;29;20116;-77
2022/04/03 03:55:43;;;;;;;6.65;2.15;;;-0.60;99.90;;;;;;4900153;29;20049;-77
2022/04/03 03:58:09;;;;;;;6.32;2.08;;;-0.60;99.90;;;;;;4900180;29;20073;-77
2022/04/03 04:00:35;;;;;;;8.68;2.10;;;-0.50;99.90;;;;;;4882809;29;20366;-77
2022/04/03 04:03:01;;;;;;;5.93;2.25;;;-0.50;99.90;;;;;;4882434;29;20064;-77
2022/04/03 04:05:27;;;;;;;7.15;2.00;;;-0.50;99.90;;;;;;4882794;29;20044;-77
2022/04/03 04:07:53;;;;;;;6.35;2.08;;;-0.50;99.90;;;;;;4899698;29;20486;-78
2022/04/03 04:10:19;;;;;;;9.07;2.58;;;-0.40;99.90;;;;;;4899145;29;20052;-77
2022/04/03 04:12:46;;;;;;;10.60;2.40;;;-0.40;99.90;;;;;;4899632;29;20052;-77
2022/04/03 04:15:12;;;;;;;5.10;1.85;;;-0.30;99.90;;;;;;4882848;29;20387;-78
2022/04/03 04:17:43;;;;;;;5.28;2.13;;;-0.30;99.90;;;;;;4899138;29;20136;-77
2022/04/03 04:20:12;;;;;;;7.57;2.80;;;-0.20;99.90;;;;;;4899508;29;20052;-77
2022/04/03 04:22:42;;;;;;;7.97;2.70;;;-0.20;99.90;;;;;;4899097;29;20481;-78
2022/04/03 04:25:09;;;;;;;10.00;3.03;;;-0.20;99.90;;;;;;4898822;29;20059;-76
2022/04/03 04:27:35;;;;;;;6.88;2.13;;;-0.30;99.90;;;;;;4899085;29;20052;-78
2022/04/03 04:30:01;;;;;;;5.75;2.17;;;-0.20;99.90;;;;;;4882280;29;20133;-77
2022/04/03 04:32:26;;;;;;;8.95;2.38;;;-0.20;99.90;;;;;;4899184;29;20052;-77
2022/04/03 04:34:52;;;;;;;7.72;2.03;;;-0.20;99.90;;;;;;4898798;29;20047;-78
2022/04/03 04:37:18;;;;;;;8.23;2.38;;;-0.20;99.90;;;;;;4899057;29;20075;-78
2022/04/03 04:39:45;;;;;;;5.75;2.13;;;-0.20;99.90;;;;;;4899170;29;20051;-78
2022/04/03 04:42:12;;;;;;;6.05;2.17;;;-0.20;99.90;;;;;;4881289;29;20052;-78
2022/04/03 04:44:38;;;;;;;5.05;2.08;;;-0.20;99.90;;;;;;4898980;29;20052;-77
2022/04/03 04:47:04;;;;;;;5.13;2.10;;;-0.10;99.90;;;;;;4898729;29;20045;-78
2022/04/03 04:49:29;;;;;;;5.40;2.20;;;-0.20;99.90;;;;;;4881992;29;20092;-78
2022/04/03 04:51:55;;;;;;;5.65;2.33;;;-0.20;99.90;;;;;;4898746;29;20442;-79
2022/04/03 04:54:21;;;;;;;5.50;1.80;;;-0.10;99.90;;;;;;4898872;29;20048;-77
2022/04/03 04:56:46;;;;;;;6.80;2.03;;;-0.10;99.90;;;;;;4882139;29;20127;-77
2022/04/03 04:59:12;;;;;;;7.72;2.20;;;-0.10;99.90;;;;;;4865681;29;20078;-77
2022/04/03 05:01:38;;;;;;;5.00;1.98;;;0.00;99.90;;;;;;4898698;29;20401;-78
2022/04/03 05:04:06;;;;;;;5.65;2.40;;;0.00;99.90;;;;;;4881570;29;20135;-77
2022/04/03 05:06:33;;;;;;;5.88;1.85;;;0.00;99.90;;;;;;4898083;29;20087;-77
2022/04/03 05:08:59;;;;;;;5.50;2.42;;;0.00;99.90;;;;;;4881790;29;20064;-78
2022/04/03 05:11:25;;;;;;;5.93;2.05;;;0.10;99.90;;;;;;4898632;29;20056;-78
2022/04/03 05:13:51;;;;;;;8.32;2.78;;;0.10;99.90;;;;;;4897869;29;20410;-77
2022/04/03 05:16:17;;;;;;;5.10;1.83;;;0.10;99.90;;;;;;4898085;29;20064;-78
2022/04/03 05:18:43;;;;;;;6.45;2.20;;;0.10;99.90;;;;;;4881404;29;20136;-78
2022/04/03 05:21:10;;;;;;;5.20;1.95;;;0.10;99.90;;;;;;4881603;29;20093;-78
2022/04/03 05:23:37;;;;;;;5.30;2.00;;;0.10;99.90;;;;;;4898344;29;20481;-78
2022/04/03 05:26:03;;;;;;;5.00;1.92;;;0.00;99.90;;;;;;4898347;29;20049;-77
2022/04/03 05:28:29;;;;;;;7.15;2.78;;;0.00;99.90;;;;;;4898009;29;20188;-78
2022/04/03 05:30:55;;;;;;;5.65;2.00;;;0.00;99.90;;;;;;4897517;29;20131;-78
2022/04/03 05:33:21;;;;;;;5.38;1.80;;;0.00;99.90;;;;;;4898147;29;20052;-78
2022/04/03 05:35:47;;;;;;;5.95;2.17;;;-0.10;99.90;;;;;;4881232;29;20044;-78
2022/04/03 05:38:12;;;;;;;6.13;2.00;;;-0.10;99.90;;;;;;4897844;29;20049;-78
2022/04/03 05:40:38;;;;;;;5.43;2.00;;;-0.20;99.90;;;;;;4898069;29;20044;-78
2022/04/03 05:43:04;;;;;;;4.32;1.80;;;-0.20;99.90;;;;;;4898101;29;20068;-77
2022/04/03 05:45:30;;;;;;;4.10;1.75;;;-0.20;99.90;;;;;;4897466;29;20096;-77
2022/04/03 05:47:56;;;;;;;4.63;1.95;;;-0.20;99.90;;;;;;4881011;29;20040;-77
2022/04/03 05:50:23;;;;;;;5.10;2.10;;;-0.10;99.90;;;;;;4897967;29;20048;-78
2022/04/03 05:52:51;;;;;;;5.32;1.95;;;-0.10;99.90;;;;;;4898113;29;20128;-78
2022/04/03 05:55:18;;;;;;;7.53;2.00;;;0.00;99.90;;;;;;4880859;29;20049;-77
2022/04/03 05:57:46;;;;;;;5.85;2.00;;;0.00;99.90;;;;;;4898092;29;20097;-78
2022/04/03 06:00:13;;;;;;;5.05;1.98;;;0.10;99.90;;;;;;4880937;29;20044;-78
2022/04/03 06:02:47;;;;;;;6.65;2.20;;;0.10;99.90;;;;;;4897179;29;20494;-78
2022/04/03 06:05:13;;;;;;;4.13;1.80;;;0.20;99.90;;;;;;4881044;29;20123;-78
2022/04/03 06:07:39;;;;;;;6.60;2.10;;;0.30;99.90;;;;;;4897842;29;20124;-77
2022/04/03 06:10:05;;;;;;;7.85;2.15;;;0.50;99.90;;;;;;4880706;29;20056;-77
2022/04/03 06:12:31;;;;;;;5.32;1.90;;;0.60;99.90;;;;;;4897434;29;20052;-78
2022/04/03 06:14:57;;;;;;;8.98;2.40;;;0.70;99.90;;;;;;4881262;29;20445;-78
2022/04/03 06:17:23;;;;;;;6.70;2.28;;;0.80;99.90;;;;;;4899622;29;20092;-78
2022/04/03 06:19:49;;;;;;;8.93;2.50;;;0.80;99.90;;;;;;4901633;29;20417;-78
2022/04/03 06:22:15;;;;;;;4.97;2.35;;;0.80;99.90;;;;;;4885151;29;20041;-78
2022/04/03 06:24:41;;;;;;;6.97;2.50;;;0.80;99.90;;;;;;4902346;29;20437;-78
2022/04/03 06:27:06;;;;;;;7.03;2.60;;;0.80;99.90;;;;;;4885323;29;20387;-78
2022/04/03 06:29:32;;;;;;;9.23;2.53;;;0.80;99.90;;;;;;4884650;29;20090;-78
2022/04/03 06:31:58;;;;;;;8.73;2.53;;;0.80;99.90;;;;;;4901681;29;20100;-78
2022/04/03 06:34:24;;;;;;;4.80;2.05;;;0.80;99.90;;;;;;4901044;29;20104;-78
2022/04/03 06:36:50;;;;;;;7.20;2.50;;;0.80;99.90;;;;;;4901107;29;20835;-77
2022/04/03 06:39:16;;;;;;;7.75;2.25;;;0.80;99.90;;;;;;4901724;29;20052;-77
2022/04/03 06:41:42;;;;;;;8.18;2.70;;;0.80;99.90;;;;;;4901267;29;20519;-78
2022/04/03 06:44:08;;;;;;;7.32;3.17;;;0.80;99.90;;;;;;4901239;29;20088;-78
2022/04/03 06:46:34;;;;;;;8.18;2.55;;;0.80;99.90;;;;;;4901634;29;20087;-78
2022/04/03 06:49:00;;;;;;;6.85;2.67;;;0.70;99.90;;;;;;4901007;29;20401;-77
2022/04/03 06:51:26;;;;;;;7.85;2.35;;;0.70;99.90;;;;;;4900846;29;20045;-78
2022/04/03 06:53:52;;;;;;;7.70;2.72;;;0.70;99.90;;;;;;4885018;29;20052;-78
2022/04/03 06:56:19;;;;;;;8.80;2.55;;;0.70;99.90;;;;;;4904749;29;20053;-78
2022/04/03 06:58:45;;;;;;;6.47;2.38;;;0.60;99.90;;;;;;4908753;29;20062;-77
2022/04/03 07:01:11;;;;;;;6.47;2.53;;;0.70;99.90;;;;;;4910387;29;20131;-78
2022/04/03 07:03:37;;;;;;;7.10;2.70;;;0.70;99.90;;;;;;4884671;29;20144;-77
2022/04/03 07:06:03;;;;;;;7.28;2.85;;;0.80;99.90;;;;;;4908152;29;20056;-76
2022/04/03 07:08:29;;;;;;;5.97;2.30;;;0.80;99.90;;;;;;4877685;29;20052;-78
2022/04/03 07:10:55;;;;;;;6.57;2.45;;;0.90;99.90;;;;;;4908549;29;20115;-77
2022/04/03 07:13:21;;;;;;;7.40;2.90;;;1.00;99.90;;;;;;4884674;29;20049;-77
2022/04/03 07:15:49;;;;;;;7.97;2.90;;;1.10;99.90;;;;;;4900072;29;20052;-78
2022/04/03 07:18:16;;;;;;;7.47;3.10;;;1.20;99.90;;;;;;4900317;29;20140;-78
2022/04/03 07:20:46;;;;;;;8.13;3.33;;;1.30;99.90;;;;;;4900180;29;20132;-76
2022/04/03 07:23:12;;;;;;;8.20;3.15;;;1.40;99.90;;;;;;4899656;29;20067;-77
2022/04/03 07:25:38;;;;;;;5.72;2.50;;;1.50;99.90;;;;;;4900062;29;20135;-77
2022/04/03 07:28:04;;;;;;;6.90;2.75;;;1.70;99.90;;;;;;4899378;29;20120;-76
2022/04/03 07:30:29;;;;;;;8.90;2.80;;;1.80;99.90;;;;;;4900299;29;20048;-74
2022/04/03 07:32:55;;;;;;;6.75;2.88;;;1.90;99.90;;;;;;4899896;29;20052;-75
2022/04/03 07:35:21;;;;;;;9.70;2.90;;;2.10;99.90;;;;;;4867603;29;20107;-75
2022/04/03 07:37:46;;;;;;;6.18;2.55;;;2.20;99.90;;;;;;4898863;29;20090;-75
2022/04/03 07:40:14;;;;;;;7.60;2.97;;;2.40;99.90;;;;;;4899784;29;20044;-74
2022/04/03 07:42:39;;;;;;;8.30;2.85;;;2.60;99.90;;;;;;4882890;29;20498;-75
2022/04/03 07:45:06;;;;;;;7.57;2.55;;;2.70;99.90;;;;;;4900381;29;20051;-73
2022/04/03 07:47:32;;;;;;;6.40;2.40;;;2.80;99.90;;;;;;4882737;29;20049;-76
2022/04/03 07:49:59;;;;;;;5.90;2.53;;;3.20;99.90;;;;;;4883058;29;20390;-75
2022/04/03 07:52:25;;;;;;;7.78;2.28;;;3.10;99.90;;;;;;4899555;29;20057;-76
2022/04/03 07:54:50;;;;;;;6.18;2.20;;;3.20;99.90;;;;;;4899259;29;20072;-76
2022/04/03 07:57:19;;;;;;;6.15;2.10;;;3.40;99.90;;;;;;4882559;29;20052;-76
2022/04/03 07:59:45;;;;;;;6.78;2.40;;;3.50;99.90;;;;;;4882903;29;20055;-75
2022/04/03 08:02:13;;;;;;;5.95;2.30;;;3.70;99.90;;;;;;4899280;29;20497;-75
2022/04/03 08:04:39;;;;;;;8.70;2.03;;;3.80;99.90;;;;;;4899355;29;20091;-75
2022/04/03 08:07:04;;;;;;;8.70;2.50;;;3.90;99.90;;;;;;4882731;29;20093;-74
2022/04/03 08:09:30;;;;;;;6.72;2.20;;;4.00;99.90;;;;;;4899278;29;20044;-75
2022/04/03 08:11:56;;;;;;;7.07;2.00;;;4.10;99.90;;;;;;4899138;29;20052;-75
2022/04/03 08:14:22;;;;;;;7.88;1.90;;;4.10;99.90;;;;;;4898556;29;20497;-76
2022/04/03 08:16:47;;;;;;;5.32;1.60;;;4.20;99.90;;;;;;4882170;29;20513;-76
2022/04/03 08:19:13;;;;;;;7.40;2.15;;;4.30;99.90;;;;;;4881946;29;20151;-76
2022/04/03 08:21:39;;;;;;;7.10;2.10;;;4.40;99.90;;;;;;4899138;29;20089;-75
2022/04/03 08:24:05;;;;;;;6.88;2.00;;;4.50;99.90;;;;;;4898599;29;20143;-76
2022/04/03 08:26:30;;;;;;;5.53;1.75;;;4.60;99.90;;;;;;4896756;29;20044;-76
2022/04/03 08:28:56;;;;;;;5.13;1.75;;;4.70;99.90;;;;;;4895435;29;20457;-78
2022/04/03 08:31:23;;;;;;;4.25;1.65;;;4.90;99.90;;;;;;4897553;29;20055;-76
2022/04/03 08:33:52;;;;;;;9.80;2.25;;;5.10;99.90;;;;;;4896790;29;20048;-78
2022/04/03 08:36:18;;;;;;;4.90;1.60;;;5.20;99.90;;;;;;4897433;29;20140;-76
2022/04/03 08:38:44;;;;;;;5.47;1.48;;;5.70;99.90;;;;;;4896434;29;20135;-78
2022/04/03 08:41:10;;;;;;;5.55;1.63;;;5.30;99.90;;;;;;4896277;29;20152;-78
2022/04/03 08:43:36;;;;;;;7.60;1.65;;;5.40;99.90;;;;;;4863612;29;20437;-75
2022/04/03 08:46:07;;;;;;;5.80;1.70;;;5.40;99.90;;;;;;4897203;29;20052;-80
2022/04/03 08:48:33;;;;;;;6.13;1.65;;;5.50;99.90;;;;;;4897185;29;20052;-80
2022/04/03 08:51:04;;;;;;;4.95;1.60;;;5.50;99.90;;;;;;4897170;29;20520;-78
2022/04/03 08:53:31;;;;;;;5.53;1.60;;;5.50;99.90;;;;;;4897113;29;20556;-79
2022/04/03 08:55:59;;;;;;;3.75;1.55;;;5.50;99.90;;;;;;4896171;29;20076;-76
2022/04/03 08:58:25;;;;;;;7.07;1.30;;;5.50;99.90;;;;;;4879452;29;20060;-78
2022/04/03 09:00:50;;;;;;;3.70;1.20;;;5.80;99.90;;;;;;4879958;29;20104;-74
2022/04/03 09:03:18;;;;;;;3.33;1.20;;;5.50;99.90;;;;;;4879595;29;20056;-77
2022/04/03 09:05:44;;;;;;;4.68;1.05;;;5.50;99.90;;;;;;4878900;29;20063;-83
2022/04/03 09:08:10;;;;;;;3.50;0.98;;;5.60;99.90;;;;;;4896979;29;20485;-86
2022/04/03 09:10:37;;;;;;;4.18;0.90;;;5.70;99.90;;;;;;4879849;29;20457;-78
2022/04/03 09:13:03;;;;;;;3.80;1.35;;;5.90;99.90;;;;;;4896237;29;20055;-71
2022/04/03 09:15:31;;;;;;;3.75;1.10;;;6.10;99.90;;;;;;4879299;29;20063;-75
2022/04/03 09:18:01;;;;;;;3.38;1.00;;;6.30;99.90;;;;;;4895779;29;20095;-75
2022/04/03 09:20:36;;;;;;;3.20;1.13;;;6.40;99.90;;;;;;4879755;29;20405;-74
2022/04/03 09:23:06;;;;;;;4.07;0.93;;;6.60;99.90;;;;;;4896258;29;20096;-74
2022/04/03 09:25:35;;;;;;;2.78;0.90;;;7.10;99.90;;;;;;4896239;29;20048;-74
2022/04/03 09:28:02;;;;;;;3.53;0.90;;;6.90;99.90;;;;;;4894999;29;20051;-75
2022/04/03 09:30:39;;;;;;;2.15;0.85;;;7.00;99.90;;;;;;4879241;29;20055;-75
2022/04/03 09:33:07;;;;;;;2.42;1.05;;;7.00;99.90;;;;;;4894664;29;20386;-73
2022/04/03 09:35:54;;;;;;;1.63;0.68;;;6.90;99.90;;;;;;4895959;29;20390;-76
2022/04/03 09:38:19;;;;;;;4.43;0.90;;;7.10;99.90;;;;;;4896239;29;20554;-74
2022/04/03 09:40:48;;;;;;;3.33;0.70;;;6.90;99.90;;;;;;4879831;29;20056;-72
2022/04/03 09:43:32;;;;;;;2.25;0.68;;;7.10;99.90;;;;;;4897283;29;20120;-76
2022/04/03 09:45:59;;;;;;;5.45;0.90;;;7.20;99.90;;;;;;4879595;29;20061;-79
2022/04/03 09:48:29;;;;;;;4.13;1.13;;;7.10;99.90;;;;;;4897111;29;20884;-77
2022/04/03 09:51:04;;;;;;;7.45;1.55;;;7.00;99.90;;;;;;4896396;29;20049;-77
2022/04/03 09:53:50;;;;;;;4.63;0.88;;;6.80;99.90;;;;;;4897220;29;20052;-80
2022/04/03 09:56:23;;;;;;;2.13;0.60;;;6.50;99.90;;;;;;4897429;29;20048;-78
2022/04/03 09:58:51;;;;;;;3.13;0.70;;;6.30;99.90;;;;;;4864353;29;20086;-78
2022/04/03 10:01:30;;;;;;;1.88;0.70;;;6.10;99.90;;;;;;4896627;29;20089;-77
2022/04/03 10:04:08;;;;;;;;;;;;;;;;;;;;;
2022/04/03 10:06:35;;;;;;;3.10;1.25;;;5.70;99.90;;;;;;4879732;29;20049;-74
2022/04/03 10:09:02;;;;;;;4.13;1.20;;;5.70;99.90;;;;;;4897710;29;20151;-72
2022/04/03 10:11:29;;;;;;;3.03;0.93;;;5.60;99.90;;;;;;4897102;29;20135;-73
2022/04/03 10:13:56;;;;;;;2.42;0.90;;;5.60;99.90;;;;;;4896773;29;20564;-74
2022/04/03 10:16:22;;;;;;;2.78;0.95;;;5.80;99.90;;;;;;4897204;29;20067;-72
2022/04/03 10:18:50;;;;;;;3.92;0.88;;;6.20;99.90;;;;;;4896605;29;20057;-75
2022/04/03 10:21:23;;;;;;;2.38;0.65;;;6.60;99.90;;;;;;4880439;29;20057;-74
2022/04/03 10:23:52;;;;;;;0.80;0.50;;;6.90;99.90;;;;;;4896740;29;20052;-75
2022/04/03 10:26:19;;;;;;;8.73;1.50;;;7.20;99.90;;;;;;4897046;29;20112;-74
2022/04/03 10:28:53;;;;;;;3.47;1.63;;;7.60;99.90;;;;;;4880016;29;20449;-71
2022/04/03 10:31:19;;;;;;;5.43;1.27;;;7.90;99.90;;;;;;4897206;29;20044;-78
2022/04/03 10:33:49;;;;;;;5.35;1.23;;;7.90;99.90;;;;;;4879551;29;20048;-72
2022/04/03 10:36:22;;;;;;;11.35;4.07;;;7.70;99.90;;;;;;4896517;29;20044;-75
2022/04/03 10:39:03;;;;;;;4.82;1.48;;;7.60;99.90;;;;;;4896332;29;20420;-72
2022/04/03 10:41:35;;;;;;;4.80;1.80;;;8.00;99.90;;;;;;4896362;29;20063;-72
2022/04/03 10:44:15;;;;;;;6.30;1.20;;;8.30;99.90;;;;;;4880002;29;20040;-73
2022/04/03 10:46:59;;;;;;;3.67;1.00;;;8.70;99.90;;;;;;4896476;29;20048;-72
2022/04/03 10:49:37;;;;;;;4.32;0.85;;;8.70;99.90;;;;;;4895957;29;20053;-71
2022/04/03 10:52:23;;;;;;;1.58;0.60;;;9.00;99.90;;;;;;4896396;29;20059;-73
2022/04/03 10:54:58;;;;;;;2.20;0.63;;;8.40;99.90;;;;;;4895528;29;20492;-73
2022/04/03 10:57:50;;;;;;;4.22;0.82;;;8.20;99.90;;;;;;4894574;29;20052;-70
2022/04/03 11:00:16;;;;;;;0.85;0.60;;;8.40;99.90;;;;;;4894522;29;20494;-74
2022/04/03 11:02:44;;;;;;;2.90;0.88;;;8.70;99.90;;;;;;4894058;29;20095;-74
2022/04/03 11:05:22;;;;;;;0.70;0.50;;;8.20;99.90;;;;;;4897260;29;20040;-76
2022/04/03 11:08:07;;;;;;;2.35;0.60;;;8.00;99.90;;;;;;4896737;29;20088;-75
2022/04/03 11:10:54;;;;;;;2.28;0.85;;;8.00;99.90;;;;;;4897237;29;20087;-73
2022/04/03 11:13:28;;;;;;;3.25;1.23;;;8.10;99.90;;;;;;4894939;29;20453;-74
2022/04/03 11:15:55;;;;;;;3.63;1.00;;;8.30;99.90;;;;;;4879804;29;20084;-71
2022/04/03 11:18:42;;;;;;;4.55;1.00;;;8.60;99.90;;;;;;4897669;29;20059;-73
2022/04/03 11:21:28;;;;;;;3.13;0.75;;;8.40;99.90;;;;;;4897821;29;20430;-74
2022/04/03 11:24:16;;;;;;;1.50;0.40;;;8.10;99.90;;;;;;4897664;29;20122;-73
2022/04/03 11:26:42;;;;;;;4.10;0.70;;;7.80;99.90;;;;;;4898302;29;20044;-74
2022/04/03 11:29:10;;;;;;;4.20;1.00;;;7.80;99.90;;;;;;4899631;29;20053;-79
2022/04/03 11:31:36;;;;;;;0.93;0.50;;;8.30;99.90;;;;;;4899409;29;20045;-76
2022/04/03 11:34:02;;;;;;;1.63;0.60;;;8.60;99.90;;;;;;4883137;29;20049;-80
2022/04/03 11:36:31;;;;;;;1.13;0.55;;;9.10;99.90;;;;;;4882481;29;20390;-76
2022/04/03 11:38:58;;;;;;;2.75;0.68;;;9.50;99.90;;;;;;4899603;29;20056;-77
2022/04/03 11:41:34;;;;;;;1.58;0.80;;;9.70;99.90;;;;;;4899100;29;20045;-73
2022/04/03 11:44:05;;;;;;;3.03;0.70;;;9.80;99.90;;;;;;4896477;29;20438;-77
2022/04/03 11:46:40;;;;;;;1.75;0.75;;;9.20;96.30;;;;;;4896608;29;20063;-75
2022/04/03 11:49:17;;;;;;;2.53;0.50;;;8.90;99.40;;;;;;4882312;29;20059;-77
2022/04/03 11:51:44;;;;;;;3.30;0.80;;;9.00;98.20;;;;;;4897853;29;20120;-76
2022/04/03 11:54:32;;;;;;;3.65;0.60;;;9.00;99.90;;;;;;4902859;29;20044;-74
2022/04/03 11:57:04;;;;;;;3.83;0.95;;;8.50;93.50;;;;;;4873274;29;20048;-78
2022/04/03 11:59:34;;;;;;;2.42;0.77;;;8.50;99.30;;;;;;4899340;29;20049;-76
2022/04/03 12:02:15;;;;;;;4.30;1.92;;;8.40;99.90;;;;;;4900313;29;20053;-76
2022/04/03 12:04:43;;;;;;;2.03;0.80;;;8.40;99.90;;;;;;4903471;29;20051;-74
2022/04/03 12:07:13;;;;;;;3.63;0.90;;;8.30;99.90;;;;;;4879560;29;20175;-76
2022/04/03 12:09:41;;;;;;;2.92;0.60;;;8.20;99.90;;;;;;4896713;29;20055;-76
2022/04/03 12:12:08;;;;;;;3.88;1.10;;;8.30;99.90;;;;;;4889493;29;20627;-76
2022/04/03 12:14:41;;;;;;;2.70;0.60;;;8.40;99.90;;;;;;4879831;29;20053;-74
2022/04/03 12:17:10;;;;;;;2.15;0.82;;;8.60;99.90;;;;;;4894645;29;20520;-76
2022/04/03 12:19:42;;;;;;;1.75;0.75;;;8.80;99.90;;;;;;4897316;29;20060;-78
2022/04/03 12:22:10;;;;;;;1.80;0.60;;;9.00;99.90;;;;;;4898207;29;20497;-75
2022/04/03 12:24:37;;;;;;;2.72;0.75;;;9.10;99.90;;;;;;4898408;29;20048;-76
2022/04/03 12:27:15;;;;;;;1.90;0.80;;;9.30;99.90;;;;;;4898917;29;20061;-76
2022/04/03 12:29:44;;;;;;;3.72;1.02;;;9.40;99.90;;;;;;4899198;29;20040;-78
2022/04/03 12:32:12;;;;;;;1.10;0.55;;;9.50;99.90;;;;;;4882047;29;20076;-75
2022/04/03 12:34:41;;;;;;;3.47;0.60;;;9.30;99.00;;;;;;4867687;29;20076;-76
2022/04/03 12:37:08;;;;;;;3.25;0.70;;;9.30;99.90;;;;;;4899833;29;20059;-73
2022/04/03 12:39:48;;;;;;;2.45;0.77;;;8.80;99.90;;;;;;4883231;29;20390;-74
2022/04/03 12:42:22;;;;;;;1.23;0.80;;;8.60;98.20;;;;;;4896282;29;20048;-74
2022/04/03 12:45:03;;;;;;;2.72;0.63;;;8.70;99.90;;;;;;4881623;29;20051;-75
2022/04/03 12:47:36;;;;;;;0.73;0.30;;;9.00;99.90;;;;;;4879350;29;20059;-74
2022/04/03 12:50:07;;;;;;;3.20;0.50;;;9.00;97.70;;;;;;4881783;29;20503;-78
2022/04/03 12:52:56;;;;;;;0.57;0.43;;;9.10;98.30;;;;;;4882013;29;20052;-74
2022/04/03 12:55:26;;;;;;;0.40;0.40;;;8.30;95.40;;;;;;4898581;29;20374;-77
2022/04/03 13:01:06;;;;;;;2.45;0.75;;;8.50;99.20;;;;;;4881600;29;20059;-76